createdAt,value
2022-09-06T00:01:15.179Z,99.90
2022-09-06T00:03:42.542Z,99.90
2022-09-06T00:06:12.874Z,99.90
2022-09-06T00:08:40.242Z,99.90
2022-09-06T00:11:08.116Z,99.90
2022-09-06T00:13:35.498Z,99.90
2022-09-06T00:16:10.543Z,99.90
2022-09-06T00:18:37.720Z,99.90
2022-09-06T00:21:13.070Z,99.90
2022-09-06T00:23:39.990Z,99.90
2022-09-06T00:26:06.861Z,99.90
2022-09-06T00:28:33.760Z,99.90
2022-09-06T00:31:12.139Z,99.90
2022-09-06T00:33:39.302Z,99.90
2022-09-06T00:36:06.761Z,99.90
2022-09-06T00:38:34.066Z,99.90
2022-09-06T00:41:01.013Z,99.90
2022-09-06T00:43:27.950Z,99.90
2022-09-06T00:45:55.929Z,97.60
2022-09-06T00:48:23.518Z,99.90
2022-09-06T00:50:54.741Z,98.20
2022-09-06T00:53:23.532Z,99.90
2022-09-06T00:55:50.633Z,99.90
2022-09-06T00:58:17.599Z,99.90
2022-09-06T01:00:47.449Z,99.90
2022-09-06T01:03:14.668Z,99.90
2022-09-06T01:06:17.819Z,99.90
2022-09-06T01:08:59.657Z,99.90
2022-09-06T01:12:05.292Z,99.90
2022-09-06T01:14:37.646Z,99.90
2022-09-06T01:17:26.478Z,99.90
2022-09-06T01:20:27.933Z,99.90
2022-09-06T01:23:10.108Z,99.90
2022-09-06T01:26:12.258Z,99.90
2022-09-06T01:28:43.752Z,99.90
2022-09-06T01:31:24.977Z,99.90
2022-09-06T01:34:03.970Z,99.90
2022-09-06T01:37:09.456Z,99.90
2022-09-06T01:39:39.446Z,99.90
2022-09-06T01:42:12.358Z,99.60
2022-09-06T01:44:45.683Z,99.20
2022-09-06T01:47:36.363Z,99.90
2022-09-06T01:50:09.376Z,99.90
2022-09-06T01:53:04.599Z,99.90
2022-09-06T01:55:58.964Z,99.50
2022-09-06T01:58:56.110Z,95.40
2022-09-06T02:01:37.991Z,97.10
2022-09-06T02:04:43.767Z,93.60
2022-09-06T02:07:20.344Z,95.60
2022-09-06T02:10:09.390Z,96.20
2022-09-06T02:12:40.751Z,96.30
2022-09-06T02:15:13.738Z,97.10
2022-09-06T02:17:47.324Z,96.20
2022-09-06T02:20:19.210Z,94.70
2022-09-06T02:22:49.209Z,93.10
2022-09-06T02:25:24.842Z,97.30
2022-09-06T02:27:51.818Z,96.20
2022-09-06T02:30:18.797Z,99.90
2022-09-06T02:32:55.976Z,98.10
2022-09-06T02:35:23.219Z,98.40
2022-09-06T02:37:50.852Z,98.40
2022-09-06T02:40:18.480Z,98.80
2022-09-06T02:42:45.349Z,98.00
2022-09-06T02:45:12.364Z,99.60
2022-09-06T02:47:39.261Z,99.90
2022-09-06T02:50:08.280Z,99.90
2022-09-06T02:52:35.128Z,99.90
2022-09-06T02:55:02.025Z,99.90
2022-09-06T02:57:29.025Z,99.90
2022-09-06T02:59:55.932Z,99.90
2022-09-06T03:02:22.832Z,99.90
2022-09-06T03:04:49.745Z,99.90
2022-09-06T03:07:16.686Z,99.90
2022-09-06T03:09:43.566Z,99.90
2022-09-06T03:12:10.501Z,99.90
2022-09-06T03:14:37.418Z,99.90
2022-09-06T03:17:04.826Z,99.90
2022-09-06T03:19:31.759Z,99.90
2022-09-06T03:21:58.635Z,99.90
2022-09-06T03:24:25.533Z,99.90
2022-09-06T03:26:52.497Z,99.90
2022-09-06T03:29:19.439Z,99.90
2022-09-06T03:31:46.299Z,99.90
2022-09-06T03:34:13.288Z,99.90
2022-09-06T03:36:40.161Z,99.90
2022-09-06T03:39:07.209Z,99.90
2022-09-06T03:41:34.082Z,99.90
2022-09-06T03:44:01.054Z,99.90
2022-09-06T03:46:30.781Z,99.90
2022-09-06T03:48:58.667Z,99.90
2022-09-06T03:51:25.986Z,99.90
2022-09-06T03:53:52.870Z,99.90
2022-09-06T03:56:20.125Z,99.90
2022-09-06T03:58:47.203Z,99.90
2022-09-06T04:01:14.215Z,99.90
2022-09-06T04:03:41.528Z,99.90
2022-09-06T04:06:08.966Z,99.90
2022-09-06T04:08:37.016Z,99.90
2022-09-06T04:11:04.463Z,99.90
2022-09-06T04:13:32.106Z,99.90
2022-09-06T04:15:59.370Z,99.90
2022-09-06T04:18:26.978Z,99.90
2022-09-06T04:20:56.211Z,99.90
2022-09-06T04:23:24.898Z,99.90
2022-09-06T04:25:55.333Z,99.90
2022-09-06T04:28:23.234Z,99.90
2022-09-06T04:30:54.270Z,99.90
2022-09-06T04:33:25.788Z,99.90
2022-09-06T04:35:58.936Z,99.90
2022-09-06T04:38:27.962Z,99.90
2022-09-06T04:40:57.554Z,99.90
2022-09-06T04:43:24.847Z,99.90
2022-09-06T04:45:51.983Z,99.90
2022-09-06T04:48:18.993Z,99.90
2022-09-06T04:50:46.202Z,99.90
2022-09-06T04:53:13.271Z,99.90
2022-09-06T04:55:40.378Z,99.90
2022-09-06T04:58:07.282Z,99.90
2022-09-06T05:00:35.661Z,99.90
2022-09-06T05:03:02.527Z,99.90
2022-09-06T05:05:29.846Z,99.90
2022-09-06T05:07:57.101Z,99.90
2022-09-06T05:10:24.848Z,99.90
2022-09-06T05:12:53.202Z,99.20
2022-09-06T05:15:21.729Z,96.80
2022-09-06T05:17:48.672Z,97.20
2022-09-06T05:20:16.124Z,94.60
2022-09-06T05:22:43.124Z,91.60
2022-09-06T05:25:10.665Z,86.80
2022-09-06T05:27:37.524Z,82.50
2022-09-06T05:30:04.760Z,81.90
2022-09-06T05:32:31.712Z,83.50
2022-09-06T05:34:58.579Z,84.50
2022-09-06T05:37:25.572Z,85.90
2022-09-06T05:39:52.631Z,86.30
2022-09-06T05:42:19.642Z,87.00
2022-09-06T05:44:46.936Z,89.10
2022-09-06T05:47:13.828Z,91.00
2022-09-06T05:49:40.796Z,92.40
2022-09-06T05:52:07.734Z,93.50
2022-09-06T05:54:34.749Z,94.80
2022-09-06T05:57:02.802Z,96.10
2022-09-06T05:59:29.709Z,96.70
2022-09-06T06:01:56.700Z,96.70
2022-09-06T06:04:23.617Z,96.20
2022-09-06T06:06:50.807Z,96.00
2022-09-06T06:09:17.785Z,96.10
2022-09-06T06:11:44.858Z,95.90
2022-09-06T06:14:11.887Z,96.30
2022-09-06T06:16:38.939Z,97.60
2022-09-06T06:19:05.871Z,97.60
2022-09-06T06:21:34.065Z,97.60
2022-09-06T06:24:03.215Z,96.80
2022-09-06T06:26:33.437Z,96.90
2022-09-06T06:29:02.442Z,95.60
2022-09-06T06:31:33.920Z,92.80
2022-09-06T06:34:03.672Z,91.30
2022-09-06T06:36:33.848Z,90.90
2022-09-06T06:39:02.259Z,90.20
2022-09-06T06:41:31.950Z,89.20
2022-09-06T06:44:04.292Z,87.10
2022-09-06T06:46:33.745Z,86.40
2022-09-06T06:49:00.952Z,84.60
2022-09-06T06:51:30.260Z,82.50
2022-09-06T06:53:57.701Z,82.60
2022-09-06T06:56:27.382Z,81.90
2022-09-06T06:58:57.757Z,79.00
2022-09-06T07:01:26.504Z,75.50
2022-09-06T07:03:54.512Z,73.80
2022-09-06T07:09:09.570Z,75.60
2022-09-06T07:11:36.518Z,75.50
2022-09-06T07:14:03.892Z,74.20
2022-09-06T07:16:31.553Z,72.30
2022-09-06T07:18:58.645Z,70.50
2022-09-06T07:21:42.507Z,69.70
2022-09-06T07:24:10.130Z,68.20
2022-09-06T07:26:39.378Z,66.30
2022-09-06T07:29:07.657Z,66.80
2022-09-06T07:34:23.294Z,66.80
2022-09-06T07:36:53.655Z,66.90
2022-09-06T07:39:20.598Z,66.90
2022-09-06T07:41:50.540Z,67.30
2022-09-06T07:44:17.557Z,68.40
2022-09-06T07:46:44.529Z,70.10
2022-09-06T07:49:11.626Z,71.60
2022-09-06T07:51:38.586Z,72.40
2022-09-06T07:54:29.319Z,73.00
2022-09-06T07:56:53.974Z,73.10
2022-09-06T07:59:20.878Z,72.70
2022-09-06T08:01:48.440Z,72.40
2022-09-06T08:04:15.765Z,74.20
2022-09-06T08:09:36.859Z,77.00
2022-09-06T08:12:07.395Z,75.30
2022-09-06T08:14:35.252Z,75.60
2022-09-06T08:17:03.425Z,75.00
2022-09-06T08:19:30.362Z,75.30
2022-09-06T08:21:57.420Z,72.00
2022-09-06T08:24:24.279Z,66.60
2022-09-06T08:26:51.495Z,65.70
2022-09-06T08:29:20.018Z,65.70
2022-09-06T08:31:47.330Z,65.50
2022-09-06T08:34:15.340Z,67.00
2022-09-06T08:36:43.086Z,65.10
2022-09-06T08:39:10.885Z,62.50
2022-09-06T08:41:56.471Z,63.10
2022-09-06T08:47:22.004Z,67.10
2022-09-06T08:49:53.003Z,68.20
2022-09-06T08:53:13.117Z,68.40
2022-09-06T08:55:57.633Z,64.50
2022-09-06T08:59:06.707Z,62.80
2022-09-06T09:01:53.929Z,62.80
2022-09-06T09:04:24.671Z,62.20
2022-09-06T09:06:58.108Z,62.90
2022-09-06T09:09:27.597Z,63.90
2022-09-06T09:11:56.098Z,63.80
2022-09-06T09:14:26.399Z,64.10
2022-09-06T09:16:55.153Z,64.80
2022-09-06T09:19:22.491Z,63.30
2022-09-06T09:21:49.450Z,64.20
2022-09-06T09:24:16.407Z,64.60
2022-09-06T09:27:01.961Z,64.40
2022-09-06T09:29:32.132Z,66.20
2022-09-06T09:32:01.552Z,68.30
2022-09-06T09:34:35.503Z,69.50
2022-09-06T09:40:29.996Z,72.00
2022-09-06T09:43:11.317Z,72.10
2022-09-06T09:45:38.243Z,73.10
2022-09-06T09:48:27.840Z,74.20
2022-09-06T09:50:56.182Z,74.50
2022-09-06T09:53:24.232Z,69.20
2022-09-06T09:55:58.574Z,67.20
2022-09-06T09:58:36.007Z,66.60
2022-09-06T10:01:12.269Z,62.70
2022-09-06T10:09:19.922Z,64.00
2022-09-06T10:11:57.511Z,64.40
2022-09-06T10:14:48.519Z,62.80
2022-09-06T10:17:32.636Z,60.50
2022-09-06T10:20:09.394Z,61.20
2022-09-06T10:23:05.133Z,59.60
2022-09-06T10:25:50.945Z,59.50
2022-09-06T10:28:23.915Z,59.50
2022-09-06T10:31:19.241Z,58.30
2022-09-06T10:34:00.897Z,57.20
2022-09-06T10:36:34.558Z,57.60
2022-09-06T10:39:06.354Z,62.40
2022-09-06T10:42:00.679Z,59.70
2022-09-06T10:44:52.216Z,62.10
2022-09-06T10:47:19.272Z,57.10
2022-09-06T10:49:52.863Z,58.50
2022-09-06T10:52:32.892Z,58.80
2022-09-06T10:55:04.747Z,57.00
2022-09-06T11:00:47.484Z,58.80
2022-09-06T11:06:10.628Z,59.00
2022-09-06T11:09:23.401Z,59.30
2022-09-06T11:12:10.815Z,58.60
2022-09-06T11:14:39.402Z,58.90
2022-09-06T11:17:23.559Z,59.80
2022-09-06T11:20:00.815Z,60.40
2022-09-06T11:22:54.181Z,60.10
2022-09-06T11:25:44.268Z,60.30
2022-09-06T11:28:17.356Z,61.50
2022-09-06T11:30:50.588Z,61.70
2022-09-06T11:33:35.579Z,59.80
2022-09-06T11:36:45.287Z,60.40
2022-09-06T11:39:12.519Z,59.30
2022-09-06T11:41:41.506Z,60.10
2022-09-06T11:44:10.330Z,59.30
2022-09-06T11:46:43.610Z,59.20
2022-09-06T11:49:32.931Z,58.60
2022-09-06T11:52:00.421Z,59.50
2022-09-06T11:54:38.627Z,59.70
2022-09-06T11:57:12.671Z,59.60
2022-09-06T12:00:00.533Z,59.90
2022-09-06T12:02:41.644Z,59.60
2022-09-06T12:05:12.048Z,60.10
2022-09-06T12:08:10.692Z,60.90
2022-09-06T12:10:40.468Z,62.00
2022-09-06T12:13:33.135Z,62.50
2022-09-06T12:16:00.620Z,63.70
2022-09-06T12:18:47.772Z,63.00
2022-09-06T12:21:39.513Z,63.20
2022-09-06T12:24:07.684Z,62.60
2022-09-06T12:26:54.444Z,63.30
2022-09-06T12:29:26.677Z,62.70
2022-09-06T12:32:05.885Z,62.90
2022-09-06T12:34:35.814Z,62.70
2022-09-06T12:37:05.818Z,63.90
2022-09-06T12:39:33.493Z,64.90
2022-09-06T12:42:11.767Z,63.10
2022-09-06T12:44:47.657Z,64.00
2022-09-06T12:47:24.500Z,64.30
2022-09-06T12:50:15.001Z,63.50
2022-09-06T12:53:02.483Z,63.50
2022-09-06T12:55:33.886Z,63.60
2022-09-06T12:58:06.188Z,63.90
2022-09-06T13:00:51.241Z,64.20
2022-09-06T13:03:24.508Z,64.90
2022-09-06T13:05:52.910Z,65.50
2022-09-06T13:08:35.485Z,65.20
2022-09-06T13:11:08.729Z,64.20
2022-09-06T13:13:35.657Z,65.00
2022-09-06T13:16:03.150Z,64.70
2022-09-06T13:18:37.918Z,64.40
2022-09-06T13:21:07.715Z,63.90
2022-09-06T13:23:50.417Z,64.20
2022-09-06T13:26:39.819Z,62.40
2022-09-06T13:29:19.961Z,63.70
2022-09-06T13:31:52.511Z,63.40
2022-09-06T13:34:28.062Z,63.00
2022-09-06T13:37:01.236Z,62.10
2022-09-06T13:39:39.670Z,61.30
2022-09-06T13:42:35.632Z,62.40
2022-09-06T13:45:27.131Z,63.60
2022-09-06T13:48:03.399Z,60.30
2022-09-06T13:50:41.352Z,60.50
2022-09-06T13:53:08.740Z,61.40
2022-09-06T13:55:35.622Z,60.30
2022-09-06T13:58:03.294Z,60.70
2022-09-06T14:00:30.547Z,60.50
2022-09-06T14:02:58.160Z,62.70
2022-09-06T14:05:25.069Z,62.50
2022-09-06T14:07:51.942Z,61.10
2022-09-06T14:10:21.413Z,60.20
2022-09-06T14:12:48.376Z,60.70
2022-09-06T14:15:15.310Z,60.30
2022-09-06T14:17:42.292Z,60.30
2022-09-06T14:20:09.784Z,60.90
2022-09-06T14:22:36.981Z,61.10
2022-09-06T14:25:04.405Z,61.20
2022-09-06T14:27:31.439Z,61.80
2022-09-06T14:29:58.864Z,61.50
2022-09-06T14:32:26.713Z,60.50
2022-09-06T14:34:53.803Z,60.90
2022-09-06T14:37:21.937Z,60.40
2022-09-06T14:40:26.477Z,59.90
2022-09-06T14:42:53.679Z,60.00
2022-09-06T14:45:20.650Z,60.10
2022-09-06T14:47:47.579Z,60.00
2022-09-06T14:50:14.503Z,60.50
2022-09-06T14:52:41.432Z,60.10
2022-09-06T14:55:08.717Z,58.40
2022-09-06T14:57:35.672Z,58.10
2022-09-06T15:00:07.146Z,57.90
2022-09-06T15:02:35.104Z,58.70
2022-09-06T15:05:02.855Z,59.70
2022-09-06T15:07:31.021Z,60.40
2022-09-06T15:09:58.671Z,58.70
2022-09-06T15:12:25.951Z,56.80
2022-09-06T15:14:52.826Z,56.60
2022-09-06T15:17:19.726Z,58.90
2022-09-06T15:19:47.195Z,58.30
2022-09-06T15:22:14.132Z,58.10
2022-09-06T15:24:41.089Z,58.80
2022-09-06T15:27:08.055Z,58.80
2022-09-06T15:29:34.936Z,59.30
2022-09-06T15:32:02.078Z,59.30
2022-09-06T15:34:29.107Z,60.00
2022-09-06T15:36:57.143Z,59.20
2022-09-06T15:39:24.217Z,59.80
2022-09-06T15:41:51.800Z,59.80
2022-09-06T15:44:21.332Z,60.10
2022-09-06T15:46:58.153Z,61.10
2022-09-06T15:49:33.279Z,58.10
2022-09-06T15:52:02.686Z,57.70
2022-09-06T15:54:48.311Z,57.70
2022-09-06T15:57:16.631Z,61.20
2022-09-06T15:59:44.027Z,60.60
2022-09-06T16:02:11.164Z,60.50
2022-09-06T16:04:38.500Z,63.00
2022-09-06T16:07:06.239Z,64.00
2022-09-06T16:09:33.194Z,65.20
2022-09-06T16:12:00.180Z,65.30
2022-09-06T16:14:29.036Z,66.20
2022-09-06T16:16:57.413Z,66.60
2022-09-06T16:19:26.154Z,67.40
2022-09-06T16:21:53.296Z,67.90
2022-09-06T16:24:21.367Z,68.30
2022-09-06T16:26:48.451Z,68.20
2022-09-06T16:29:18.112Z,68.40
2022-09-06T16:31:45.586Z,68.30
2022-09-06T16:34:13.136Z,68.60
2022-09-06T16:36:40.378Z,68.70
2022-09-06T16:39:08.682Z,69.00
2022-09-06T16:41:40.466Z,69.80
2022-09-06T16:44:09.644Z,71.10
2022-09-06T16:46:36.686Z,71.10
2022-09-06T16:49:04.659Z,71.40
2022-09-06T16:51:31.973Z,71.50
2022-09-06T16:54:00.426Z,73.70
2022-09-06T16:56:31.859Z,73.00
2022-09-06T16:58:59.928Z,74.10
2022-09-06T17:01:29.348Z,73.10
2022-09-06T17:03:57.474Z,73.90
2022-09-06T17:06:25.107Z,73.50
2022-09-06T17:08:52.184Z,74.30
2022-09-06T17:11:21.191Z,79.80
2022-09-06T17:13:50.212Z,75.90
2022-09-06T17:16:37.423Z,77.10
2022-09-06T17:19:06.361Z,77.00
2022-09-06T17:21:34.658Z,76.60
2022-09-06T17:24:05.447Z,76.70
2022-09-06T17:26:34.652Z,76.50
2022-09-06T17:29:01.750Z,76.90
2022-09-06T17:31:28.786Z,77.30
2022-09-06T17:33:56.301Z,78.00
2022-09-06T17:36:26.870Z,78.80
2022-09-06T17:39:09.808Z,78.70
2022-09-06T17:41:40.180Z,79.70
2022-09-06T17:44:10.856Z,80.00
2022-09-06T17:46:44.085Z,80.60
2022-09-06T17:49:24.860Z,81.10
2022-09-06T17:51:52.330Z,81.60
2022-09-06T17:54:19.394Z,83.40
2022-09-06T17:56:46.340Z,83.70
2022-09-06T17:59:15.652Z,84.00
2022-09-06T18:01:44.749Z,84.90
2022-09-06T18:04:13.251Z,85.80
2022-09-06T18:06:43.237Z,87.10
2022-09-06T18:09:14.770Z,87.90
2022-09-06T18:11:42.266Z,89.70
2022-09-06T18:14:11.791Z,90.00
2022-09-06T18:16:40.584Z,90.40
2022-09-06T18:19:09.155Z,90.80
2022-09-06T18:21:39.022Z,91.10
2022-09-06T18:24:06.595Z,91.30
2022-09-06T18:26:33.895Z,91.60
2022-09-06T18:29:00.917Z,92.10
2022-09-06T18:31:28.736Z,92.50
2022-09-06T18:34:00.494Z,92.50
2022-09-06T18:36:32.019Z,93.20
2022-09-06T18:39:03.224Z,93.70
2022-09-06T18:41:49.483Z,94.10
2022-09-06T18:44:16.939Z,94.30
2022-09-06T18:46:44.069Z,94.30
2022-09-06T18:49:13.666Z,94.20
2022-09-06T18:51:40.870Z,94.70
2022-09-06T18:54:08.041Z,94.40
2022-09-06T18:56:35.122Z,94.80
2022-09-06T18:59:02.306Z,94.80
2022-09-06T19:01:30.456Z,94.30
2022-09-06T19:03:58.912Z,95.20
2022-09-06T19:06:28.372Z,95.10
2022-09-06T19:08:59.640Z,95.50
2022-09-06T19:11:26.914Z,95.20
2022-09-06T19:13:55.238Z,95.00
2022-09-06T19:16:23.961Z,95.30
2022-09-06T19:18:51.854Z,95.40
2022-09-06T19:21:22.020Z,96.00
2022-09-06T19:24:01.134Z,96.60
2022-09-06T19:26:32.248Z,96.90
2022-09-06T19:29:01.560Z,97.00
2022-09-06T19:31:31.133Z,97.10
2022-09-06T19:33:58.725Z,97.10
2022-09-06T19:36:27.853Z,97.00
2022-09-06T19:39:05.783Z,97.20
2022-09-06T19:41:36.256Z,97.80
2022-09-06T19:44:05.970Z,98.20
2022-09-06T19:46:33.179Z,99.10
2022-09-06T19:49:00.616Z,99.30
2022-09-06T19:51:27.708Z,99.70
2022-09-06T19:54:00.128Z,99.90
2022-09-06T19:56:34.245Z,99.90
2022-09-06T19:59:07.331Z,99.90
2022-09-06T20:01:36.562Z,99.90
2022-09-06T20:04:05.702Z,99.90
2022-09-06T20:06:33.684Z,99.90
2022-09-06T20:09:02.153Z,99.90
2022-09-06T20:11:32.409Z,99.90
2022-09-06T20:14:00.522Z,99.90
2022-09-06T20:16:28.382Z,99.90
2022-09-06T20:18:55.572Z,99.90
2022-09-06T20:21:22.859Z,99.90
2022-09-06T20:23:51.340Z,99.90
2022-09-06T20:26:19.772Z,99.90
2022-09-06T20:28:47.414Z,99.90
2022-09-06T20:31:17.369Z,99.90
2022-09-06T20:33:49.487Z,99.90
2022-09-06T20:36:18.308Z,99.90
2022-09-06T20:38:46.396Z,99.90
2022-09-06T20:41:22.802Z,99.90
2022-09-06T20:43:54.888Z,99.90
2022-09-06T20:46:27.189Z,99.90
2022-09-06T20:48:56.695Z,99.90
2022-09-06T20:51:25.245Z,99.90
2022-09-06T20:53:54.177Z,99.90
2022-09-06T20:56:23.923Z,99.90
2022-09-06T20:58:53.934Z,99.90
2022-09-06T21:01:26.155Z,99.90
2022-09-06T21:03:59.533Z,99.90
2022-09-06T21:06:28.274Z,99.90
2022-09-06T21:08:55.858Z,99.90
2022-09-06T21:11:23.363Z,99.90
2022-09-06T21:13:52.403Z,99.90
2022-09-06T21:16:24.204Z,99.90
2022-09-06T21:18:53.231Z,99.90
2022-09-06T21:21:20.179Z,99.90
2022-09-06T21:23:47.113Z,99.90
2022-09-06T21:26:18.020Z,99.90
2022-09-06T21:28:46.763Z,99.90
2022-09-06T21:31:18.329Z,99.90
2022-09-06T21:33:46.685Z,99.90
2022-09-06T21:36:16.437Z,99.90
2022-09-06T21:38:45.804Z,99.90
2022-09-06T21:41:16.785Z,99.90
2022-09-06T21:43:44.503Z,99.90
2022-09-06T21:46:16.573Z,99.90
2022-09-06T21:48:46.247Z,99.90
2022-09-06T21:51:16.438Z,99.90
2022-09-06T21:53:48.330Z,99.90
2022-09-06T21:56:15.996Z,99.90
2022-09-06T21:58:44.401Z,99.90
2022-09-06T22:01:11.511Z,99.90
2022-09-06T22:03:42.168Z,99.90
2022-09-06T22:06:24.899Z,99.90
2022-09-06T22:08:52.409Z,99.90
2022-09-06T22:11:25.579Z,99.90
2022-09-06T22:13:52.670Z,99.90
2022-09-06T22:16:22.606Z,99.90
2022-09-06T22:18:49.993Z,99.90
2022-09-06T22:21:20.382Z,99.90
2022-09-06T22:23:57.183Z,99.90
2022-09-06T22:26:26.678Z,99.90
2022-09-06T22:28:55.600Z,99.90
2022-09-06T22:31:23.809Z,99.90
2022-09-06T22:33:51.030Z,99.90
2022-09-06T22:36:18.023Z,99.90
2022-09-06T22:38:45.519Z,99.90
2022-09-06T22:41:12.639Z,99.90
2022-09-06T22:43:39.491Z,99.90
2022-09-06T22:46:08.666Z,99.90
2022-09-06T22:48:36.226Z,99.90
2022-09-06T22:51:04.486Z,99.90
2022-09-06T22:53:31.882Z,99.90
2022-09-06T22:55:59.504Z,99.90
2022-09-06T22:58:27.200Z,99.90
2022-09-06T23:00:55.009Z,99.90
2022-09-06T23:03:22.313Z,99.90
2022-09-06T23:05:49.490Z,99.90
2022-09-06T23:08:16.655Z,99.90
2022-09-06T23:10:44.291Z,99.90
2022-09-06T23:13:11.679Z,99.90
2022-09-06T23:15:42.739Z,99.90
2022-09-06T23:18:09.723Z,99.90
2022-09-06T23:20:37.348Z,99.90
2022-09-06T23:23:13.806Z,99.90
2022-09-06T23:25:40.817Z,99.90
2022-09-06T23:28:07.789Z,99.90
2022-09-06T23:30:38.047Z,99.90
2022-09-06T23:33:05.143Z,99.90
2022-09-06T23:35:32.100Z,99.90
2022-09-06T23:37:59.133Z,99.90
2022-09-06T23:40:26.037Z,99.90
2022-09-06T23:42:52.921Z,99.90
2022-09-06T23:45:19.883Z,99.90
2022-09-06T23:47:46.958Z,99.90
2022-09-06T23:50:14.247Z,99.90
2022-09-06T23:52:41.246Z,99.90
2022-09-06T23:55:09.410Z,99.90
2022-09-06T23:57:36.330Z,99.90
